Latest Weather Observations for Hindmarsh Island

IDS60801

Issued at 10:31 pm CST Sunday 24 May 2015 (issued every 30 minutes, with the page automatically refreshed every 10 minutes)

About weather observations | Map of weather stations | Latest weather observations for SA | Other Formats
Station Details ID: 023894 Name: HINDMARSH ISLAND AWS Lat: -35.52 Lon: 138.82 Height: 11.0 m
Data from the previous 72 hours. | See also: Recent months at Hindmarsh Island
Date/Time
CST
Temp
°C
App
Temp
°C
Dew
Point
Rel
Hum
%
Delta-T
°C
Wind Press
QNH
hPa
Press
MSL
hPa
Rain
since 9 am
mm
Dir
 
Spd
km/h
Gust
km/h
Spd
kts
Gust
kts
24/10:30pm 11.2 8.8 8.8 85 1.2 N 11 17 6 9 1028.8 - 0.0
24/10:00pm 11.6 9.4 9.3 86 1.1 N 11 19 6 10 1028.4 - 0.0
24/09:30pm 10.8 8.7 8.4 85 1.2 E 9 13 5 7 1027.8 - 0.0
24/09:00pm 11.2 9.1 8.4 83 1.4 NE 9 11 5 6 1028.0 1028.0 0.0
24/08:30pm 11.4 9.7 8.4 82 1.5 NNE 7 11 4 6 1028.4 - 0.0
24/08:00pm 12.0 10.0 8.7 80 1.6 NNE 9 11 5 6 1028.4 - 0.0
24/07:30pm 12.3 10.8 9.0 80 1.7 NNE 7 9 4 5 1028.6 - 0.0
24/07:00pm 12.6 9.9 9.1 79 1.8 N 13 15 7 8 1028.7 - 0.0
24/06:30pm 12.0 9.6 8.5 79 1.7 NE 11 15 6 8 1028.5 - 0.0
24/06:00pm 12.5 10.1 8.8 78 1.8 NE 11 13 6 7 1028.3 1028.2 0.0
24/05:30pm 13.3 10.6 9.0 75 2.2 NNE 13 15 7 8 1028.0 - 0.0
24/05:00pm 13.1 11.2 9.2 77 2.0 ENE 9 11 5 6 1028.0 - 0.0
24/04:30pm 13.7 11.8 9.0 73 2.4 NE 9 11 5 6 1027.7 - 0.0
24/04:00pm 14.4 12.6 9.6 73 2.5 E 9 9 5 5 1027.7 - 0.0
24/03:30pm 15.1 13.7 9.7 70 2.8 NNE 7 11 4 6 1027.6 - 0.0
24/03:00pm 15.3 14.4 9.2 67 3.1 NE 4 9 2 5 1027.4 1027.3 0.0
24/02:30pm 15.6 14.3 9.1 65 3.3 NNE 6 7 3 4 1027.2 - 0.0
24/02:00pm 15.4 14.7 8.6 64 3.5 NNE 2 7 1 4 1027.3 - 0.0
24/01:30pm 15.6 13.3 9.1 65 3.3 NNE 11 13 6 7 1027.4 - 0.0
24/01:00pm 14.9 13.1 9.3 69 2.9 NNE 9 11 5 6 1027.8 - 0.0
24/12:30pm 13.9 11.5 8.7 71 2.6 NNE 11 13 6 7 1028.0 - 0.0
24/12:00pm 13.2 10.4 8.7 74 2.2 NNE 13 17 7 9 1028.3 1028.3 0.0
24/11:30am 12.9 10.1 8.4 74 2.2 N 13 17 7 9 1028.5 - 0.0
24/11:00am 11.6 8.7 8.1 79 1.7 N 13 17 7 9 1028.7 - 0.0
24/10:30am 10.4 6.5 7.3 81 1.5 NNE 17 20 9 11 1028.6 - 0.0
24/10:00am 10.0 6.4 6.7 80 1.5 N 15 19 8 10 1028.8 - 0.0
24/09:30am 9.2 6.3 6.3 82 1.3 NNE 11 17 6 9 1028.9 - 0.0
24/09:00am 8.2 4.8 5.7 84 1.1 N 13 15 7 8 1028.9 1028.9 0.2
24/08:30am 7.6 4.1 5.6 87 0.9 N 13 17 7 9 1028.6 - 0.2
24/08:00am 7.0 3.8 5.2 88 0.8 NNE 11 15 6 8 1028.5 - 0.2
24/07:30am 6.6 3.4 4.9 89 0.7 NNE 11 19 6 10 1028.4 - 0.0
24/07:00am 5.0 1.8 3.2 88 0.7 NE 9 11 5 6 1028.3 - 0.0
24/06:30am 6.0 2.6 4.0 87 0.8 NNE 11 15 6 8 1028.2 - 0.0
24/06:00am 6.3 3.4 4.5 88 0.8 NNE 9 13 5 7 1028.1 - 0.0
24/05:30am 6.6 3.3 4.8 88 0.8 NNE 11 17 6 9 1028.0 - 0.0
24/05:00am 5.5 2.0 3.7 88 0.8 NNE 11 13 6 7 1027.8 - 0.0
24/04:30am 6.7 4.8 4.9 88 0.8 NNE 4 9 2 5 1027.7 - 0.0
24/04:00am 6.9 3.3 5.1 88 0.8 NNE 13 17 7 9 1027.7 - 0.0
24/03:30am 6.8 3.6 5.0 88 0.8 N 11 13 6 7 1027.9 - 0.0
24/03:00am 7.5 4.4 5.6 88 0.8 N 11 15 6 8 1028.0 1028.1 0.0
24/02:30am 7.4 3.6 5.7 89 0.8 NNE 15 19 8 10 1028.1 - 0.0
24/02:00am 7.3 3.8 5.6 89 0.8 NNE 13 15 7 8 1028.2 - 0.0
24/01:30am 7.3 3.8 5.6 89 0.8 NNE 13 15 7 8 1028.3 - 0.0
24/01:00am 7.1 3.9 5.3 88 0.8 N 11 13 6 7 1028.5 - 0.0
24/12:30am 7.5 5.2 5.5 87 0.9 NNE 7 9 4 5 1028.7 - 0.0
24/12:00am 7.6 5.2 5.4 86 1.0 NE 7 9 4 5 1028.9 1028.9 0.0
 
Date/Time
CST
Temp
°C
App
Temp
°C
Dew
Point
Rel
Hum
%
Delta-T
°C
Wind Press
QNH
hPa
Press
MSL
hPa
Rain
since 9 am
mm
Dir
 
Spd
km/h
Gust
km/h
Spd
kts
Gust
kts
23/11:30pm 8.6 6.0 6.2 85 1.1 NNE 9 11 5 6 1029.0 - 0.0
23/11:00pm 8.8 5.1 6.2 84 1.2 NE 15 17 8 9 1029.1 - 0.0
23/10:30pm 9.6 5.7 7.0 84 1.2 NNE 17 17 9 9 1029.2 - 0.0
23/10:00pm 9.5 6.0 7.4 87 1.0 NNE 15 17 8 9 1029.4 - 0.0
23/09:30pm 9.0 5.8 7.0 87 0.9 NNE 13 15 7 8 1029.5 - 0.0
23/09:00pm 9.0 7.0 7.0 87 0.9 N 7 9 4 5 1029.6 1029.5 0.0
23/08:30pm 9.7 7.4 7.5 86 1.0 N 9 11 5 6 1029.6 - 0.0
23/08:00pm 8.8 6.0 6.8 87 0.9 ENE 11 13 6 7 1029.5 - 0.0
23/07:30pm 8.5 4.8 6.3 86 1.0 E 15 17 8 9 1029.4 - 0.0
23/07:00pm 8.8 5.4 6.1 83 1.2 ENE 13 15 7 8 1029.4 - 0.0
23/06:30pm 9.2 5.1 6.1 81 1.4 ENE 17 17 9 9 1029.4 - 0.0
23/06:00pm 9.4 5.4 6.5 82 1.3 ENE 17 19 9 10 1029.4 1029.4 0.0
23/05:30pm 9.7 6.1 6.6 81 1.4 ENE 15 17 8 9 1029.3 - 0.0
23/05:00pm 11.0 7.9 7.1 77 1.9 ENE 13 15 7 8 1029.4 - 0.0
23/04:30pm 12.3 8.5 7.4 72 2.4 E 17 20 9 11 1029.2 - 0.0
23/04:00pm 13.3 9.5 7.5 68 2.8 ENE 17 20 9 11 1029.4 - 0.0
23/03:30pm 13.6 9.9 7.8 68 2.9 ENE 17 20 9 11 1029.5 - 0.0
23/03:00pm 13.7 9.9 7.7 67 2.9 ENE 17 22 9 12 1029.5 1029.5 0.0
23/02:30pm 13.8 10.1 7.8 67 3.0 E 17 20 9 11 1029.7 - 0.0
23/02:00pm 13.8 9.7 7.8 67 3.0 E 19 24 10 13 1029.8 - 0.0
23/01:30pm 13.7 10.0 8.1 69 2.8 NE 17 24 9 13 1030.1 - 0.0
23/01:00pm 13.1 9.2 7.3 68 2.8 NE 17 26 9 14 1030.3 - 0.0
23/12:30pm 12.6 8.8 7.5 71 2.5 NE 17 20 9 11 1030.8 - 0.0
23/12:00pm 12.3 8.4 7.0 70 2.5 NE 17 22 9 12 1031.4 1031.5 0.0
23/11:30am 11.6 7.2 6.5 71 2.4 NNE 19 22 10 12 1031.8 - 0.0
23/11:00am 11.2 6.8 6.5 73 2.2 NNE 19 24 10 13 1032.4 - 0.0
23/10:30am 10.7 6.2 6.3 74 2.1 NNE 19 24 10 13 1032.8 - 0.0
23/10:00am 10.6 5.5 6.2 74 2.0 NE 22 28 12 15 1032.7 - 0.0
23/09:30am 10.0 5.4 6.3 78 1.7 NE 20 26 11 14 1032.9 - 0.0
23/09:00am 9.2 5.2 6.5 83 1.2 NE 17 19 9 10 1033.1 1033.1 0.0
23/08:30am 8.2 4.4 5.8 85 1.1 NNE 15 17 8 9 1033.0 - 0.0
23/08:00am 7.3 4.1 4.9 85 1.1 NNE 11 15 6 8 1032.7 - 0.0
23/07:30am 6.6 3.3 4.4 86 0.9 N 11 13 6 7 1032.6 - 0.0
23/07:00am 6.5 3.2 4.5 87 0.9 N 11 13 6 7 1032.4 - 0.0
23/06:30am 6.7 4.2 4.5 86 1.0 NNE 7 9 4 5 1032.3 - 0.0
23/06:00am 6.6 4.2 4.4 86 0.9 N 6 9 3 5 1032.0 1031.9 0.0
23/05:30am 7.1 4.2 4.8 85 1.0 N 9 11 5 6 1031.9 - 0.0
23/05:00am 7.5 4.3 5.0 84 1.1 NNE 11 13 6 7 1031.7 - 0.0
23/04:30am 7.6 4.4 4.9 83 1.2 NNE 11 13 6 7 1031.5 - 0.0
23/04:00am 8.3 4.0 5.2 81 1.4 ENE 17 20 9 11 1031.7 - 0.0
23/03:30am 8.3 5.2 5.6 83 1.2 NNE 11 13 6 7 1031.8 - 0.0
23/03:00am 7.9 3.9 5.0 82 1.3 E 15 17 8 9 1031.8 1031.8 0.0
23/02:30am 7.9 3.9 4.8 81 1.4 E 15 19 8 10 1031.9 - 0.0
23/02:00am 8.7 5.2 5.4 80 1.5 E 13 17 7 9 1032.0 - 0.0
23/01:30am 8.7 5.6 5.6 81 1.4 E 11 13 6 7 1032.0 - 0.0
23/01:00am 9.3 5.9 6.0 80 1.5 E 13 15 7 8 1032.1 - 0.0
23/12:30am 9.8 6.5 6.2 78 1.7 ESE 13 17 7 9 1032.2 - 0.0
23/12:00am 10.2 6.1 6.2 76 1.8 ESE 17 19 9 10 1032.4 1032.4 0.0
 
Date/Time
CST
Temp
°C
App
Temp
°C
Dew
Point
Rel
Hum
%
Delta-T
°C
Wind Press
QNH
hPa
Press
MSL
hPa
Rain
since 9 am
mm
Dir
 
Spd
km/h
Gust
km/h
Spd
kts
Gust
kts
22/11:30pm 10.4 6.7 6.5 77 1.8 ESE 15 20 8 11 1032.2 - 0.0
22/11:00pm 10.7 6.7 6.5 75 2.0 E 17 20 9 11 1032.1 - 0.0
22/10:30pm 10.8 6.8 6.6 75 2.0 E 17 20 9 11 1032.1 - 0.0
22/10:00pm 11.2 7.3 7.1 76 2.0 E 17 20 9 11 1032.2 - 0.0
22/09:30pm 11.3 7.8 7.0 75 2.0 E 15 20 8 11 1032.2 - 0.0
22/09:00pm 11.5 8.3 6.8 73 2.2 E 13 15 7 8 1032.1 1032.1 0.0
22/08:30pm 11.7 9.5 6.2 69 2.6 E 7 9 4 5 1032.1 - 0.0
22/08:00pm 11.0 8.5 6.4 73 2.2 E 9 11 5 6 1032.0 - 0.0
22/07:30pm 10.8 7.0 5.8 71 2.3 ESE 15 15 8 8 1031.8 - 0.0
22/07:00pm 12.4 7.7 6.2 66 2.9 SE 20 26 11 14 1031.7 - 0.0
22/06:30pm 12.7 7.3 6.3 65 3.0 SE 24 30 13 16 1031.7 - 0.0
22/06:00pm 12.9 8.0 7.1 68 2.8 SE 22 28 12 15 1031.5 1031.5 0.0
22/05:30pm 12.7 8.6 6.3 65 3.0 SSE 17 22 9 12 1031.5 - 0.0
22/05:00pm 12.7 8.2 6.1 64 3.1 S 19 22 10 12 1031.8 - 0.0
22/04:30pm 13.1 8.2 6.7 65 3.1 S 22 28 12 15 1031.6 - 0.0
22/04:00pm 13.2 8.9 7.2 67 2.9 SSE 19 24 10 13 1031.6 - 0.0
22/03:30pm 13.5 8.6 7.1 65 3.1 SE 22 28 12 15 1031.5 - 0.0
22/03:00pm 13.5 9.0 6.8 64 3.2 SSE 20 24 11 13 1031.2 1031.2 0.0
22/02:30pm 13.6 8.6 6.5 62 3.4 SSE 22 28 12 15 1031.2 - 0.0
22/02:00pm 14.1 9.3 7.4 64 3.3 SSE 22 26 12 14 1031.3 - 0.0
22/01:30pm 14.2 9.1 7.7 65 3.2 SE 24 28 13 15 1031.4 - 0.0
22/01:00pm 13.8 8.2 7.1 64 3.3 SE 26 32 14 17 1031.4 - 0.0
22/12:30pm 13.9 8.5 7.9 67 3.0 SE 26 33 14 18 1031.5 - 0.0
22/12:00pm 13.4 8.3 7.6 68 2.8 SE 24 28 13 15 1031.7 1031.8 0.0
22/11:30am 13.8 9.6 8.4 70 2.7 ESE 20 26 11 14 1032.3 - 0.0
22/11:00am 13.6 9.0 8.2 70 2.7 ESE 22 26 12 14 1032.5 - 0.0
22/10:30am 13.2 9.6 8.5 73 2.3 ESE 17 20 9 11 1032.5 - 0.0
22/10:00am 12.9 9.7 8.6 75 2.1 E 15 20 8 11 1032.5 - 0.0
22/09:30am 12.1 9.3 8.6 79 1.7 ENE 13 20 7 11 1032.3 - 0.0
22/09:00am 11.7 9.3 8.7 82 1.5 NNE 11 15 6 8 1032.1 1032.2 1.4
22/08:30am 11.0 8.1 8.2 83 1.4 NNE 13 17 7 9 1031.9 - 1.2
22/08:00am 10.3 7.8 8.2 87 1.0 ENE 11 13 6 7 1031.7 - 1.2
22/07:30am 9.9 7.4 8.0 88 0.9 NE 11 13 6 7 1031.4 - 1.2
22/07:00am 9.6 6.6 7.7 88 0.9 ENE 13 13 7 7 1031.1 - 1.2
22/06:30am 9.6 6.6 7.9 89 0.8 ENE 13 15 7 8 1030.8 - 1.2
22/06:00am 10.0 7.5 8.3 89 0.8 ENE 11 13 6 7 1030.5 1030.4 1.2
22/05:30am 10.4 8.0 8.8 90 0.8 E 11 13 6 7 1030.2 - 1.2
22/05:00am 10.3 8.3 8.6 89 0.8 E 9 13 5 7 1030.1 - 1.2
22/04:30am 10.6 8.7 8.9 89 0.8 E 9 11 5 6 1029.8 - 1.0
22/04:00am 10.5 8.5 8.8 89 0.8 E 9 11 5 6 1029.6 - 1.0
22/03:30am 10.2 7.0 8.3 88 0.9 E 15 20 8 11 1029.7 - 0.8
22/03:00am 10.4 7.5 8.2 86 1.1 E 13 17 7 9 1029.6 1029.6 0.8
22/02:30am 11.4 7.4 9.1 86 1.1 SE 20 24 11 13 1029.5 - 0.8
22/02:00am 11.5 9.0 9.8 89 0.9 ESE 13 19 7 10 1029.5 - 0.8
22/01:30am 11.6 8.8 9.9 89 0.9 SSE 15 19 8 10 1029.4 - 0.4
22/01:00am 10.7 9.1 8.8 88 0.9 ESE 7 9 4 5 1029.4 - 0.4
22/12:30am 10.9 8.6 9.0 88 0.9 E 11 13 6 7 1029.5 - 0.4
22/12:00am 11.5 8.9 9.4 87 1.0 SSE 13 20 7 11 1029.3 1029.3 0.4
 
Date/Time
CST
Temp
°C
App
Temp
°C
Dew
Point
Rel
Hum
%
Delta-T
°C
Wind Press
QNH
hPa
Press
MSL
hPa
Rain
since 9 am
mm
Dir
 
Spd
km/h
Gust
km/h
Spd
kts
Gust
kts
21/11:30pm 11.3 9.1 9.2 87 1.0 ESE 11 13 6 7 1029.3 - 0.4
21/11:00pm 12.0 7.7 9.4 84 1.3 SSE 22 24 12 13 1029.4 - 0.4

Other Formats:

Comma delimited format used in spreadsheet applications
http://www.bom.gov.au/fwo/IDS60801/IDS60801.94677.axf

JavaScript Object Notation format (JSON) in row-major order
http://www.bom.gov.au/fwo/IDS60801/IDS60801.94677.json